Time;durP1;ratioP1;P1;durP2;ratioP2;P2;SDS_P1;SDS_P2;PMS_P1;PMS_P2;Temp;Humidity;BMP_temperature;BMP_pressure;BME280_temperature;BME280_humidity;BME280_pressure;Samples;Min_cycle;Max_cycle;Signal;HPM_P1;HPM_P2
2022/07/11 00:01:23;;;;;;;3.78;1.40;;;;;;;16.24;88.80;100752.34;5052772;28;20112;-65
2022/07/11 00:03:48;;;;;;;2.42;1.70;;;;;;;16.22;89.57;100747.97;5052538;28;20400;-66
2022/07/11 00:06:14;;;;;;;2.60;1.40;;;;;;;16.19;89.38;100753.47;5052354;28;20148;-66
2022/07/11 00:08:39;;;;;;;3.90;1.40;;;;;;;16.19;89.59;100748.09;5052830;28;20498;-65
2022/07/11 00:11:04;;;;;;;3.20;1.90;;;;;;;16.16;89.15;100748.25;5052517;28;20021;-65
2022/07/11 00:13:30;;;;;;;2.10;1.40;;;;;;;16.13;89.91;100743.00;5052690;28;20116;-65
2022/07/11 00:15:55;;;;;;;2.50;1.40;;;;;;;16.11;89.43;100736.84;5049690;28;20023;-65
2022/07/11 00:18:21;;;;;;;2.53;1.33;;;;;;;16.07;90.16;100743.25;5041060;28;20064;-65
2022/07/11 00:20:46;;;;;;;3.03;1.40;;;;;;;16.04;90.09;100741.59;5031825;28;20025;-66
2022/07/11 00:23:11;;;;;;;2.10;1.33;;;;;;;16.01;90.09;100738.16;5030567;28;20033;-65
2022/07/11 00:25:37;;;;;;;2.00;1.42;;;;;;;16.04;90.51;100738.91;5039902;28;20016;-65
2022/07/11 00:28:02;;;;;;;2.58;1.50;;;;;;;15.97;91.46;100747.28;5049520;28;20392;-65
2022/07/11 00:30:28;;;;;;;2.45;1.35;;;;;;;15.98;91.90;100741.00;5049087;28;20029;-65
2022/07/11 00:32:53;;;;;;;2.97;1.70;;;;;;;15.99;92.00;100732.00;5047911;28;20024;-65
2022/07/11 00:35:18;;;;;;;2.67;1.42;;;;;;;15.89;92.20;100727.94;5049309;28;20104;-64
2022/07/11 00:37:44;;;;;;;1.80;1.50;;;;;;;15.85;91.51;100731.72;5050195;28;20025;-65
2022/07/11 00:40:09;;;;;;;2.45;1.60;;;;;;;15.78;92.25;100726.59;5051246;28;20017;-65
2022/07/11 00:42:36;;;;;;;3.05;1.50;;;;;;;15.74;92.54;100727.69;5034280;28;20041;-65
2022/07/11 00:45:01;;;;;;;2.92;1.50;;;;;;;15.73;91.84;100735.78;5032080;28;20052;-65
2022/07/11 00:47:26;;;;;;;2.35;1.50;;;;;;;15.70;92.41;100738.59;5032185;28;20049;-64
2022/07/11 00:49:52;;;;;;;2.83;1.60;;;;;;;15.67;93.28;100739.59;5031728;28;20432;-65
2022/07/11 00:52:18;;;;;;;3.28;1.75;;;;;;;15.65;93.06;100725.38;5032078;28;20110;-65
2022/07/11 00:54:45;;;;;;;3.20;1.70;;;;;;;15.57;92.50;100722.13;5033307;28;20097;-65
2022/07/11 00:57:10;;;;;;;2.83;1.67;;;;;;;15.55;93.39;100723.16;5051880;28;20032;-65
2022/07/11 00:59:36;;;;;;;2.38;1.65;;;;;;;15.52;93.03;100725.94;5051209;28;20028;-65
2022/07/11 01:02:02;;;;;;;3.38;1.73;;;;;;;15.35;94.22;100726.59;5051878;28;20432;-65
2022/07/11 01:04:27;;;;;;;3.15;1.52;;;;;;;15.48;94.57;100735.94;5051864;28;20107;-65
2022/07/11 01:06:52;;;;;;;3.70;1.88;;;;;;;15.47;94.09;100730.63;5051319;28;20451;-65
2022/07/11 01:09:18;;;;;;;3.10;1.88;;;;;;;15.52;93.56;100729.50;5051956;28;20119;-65
2022/07/11 01:11:43;;;;;;;2.25;1.58;;;;;;;15.46;94.29;100723.53;5051430;28;20506;-65
2022/07/11 01:14:09;;;;;;;3.78;1.80;;;;;;;15.41;94.06;100721.03;5051198;28;20017;-65
2022/07/11 01:16:34;;;;;;;3.72;1.63;;;;;;;15.39;94.49;100717.53;5047373;28;20024;-65
2022/07/11 01:19:00;;;;;;;2.88;1.50;;;;;;;15.39;94.88;100714.84;5050854;28;20094;-65
2022/07/11 01:21:38;;;;;;;4.07;1.80;;;;;;;15.36;94.22;100711.41;5051399;28;20029;-65
2022/07/11 01:24:05;;;;;;;2.35;1.30;;;;;;;15.29;94.78;100709.88;5051709;28;20087;-65
2022/07/11 01:26:32;;;;;;;2.70;1.58;;;;;;;15.30;95.90;100708.97;5050562;28;20029;-66
2022/07/11 01:29:06;;;;;;;2.78;1.85;;;;;;;15.31;95.17;100713.38;5050644;28;20029;-65
2022/07/11 01:31:31;;;;;;;3.00;1.70;;;;;;;15.28;96.22;100710.84;5050074;28;20021;-65
2022/07/11 01:33:58;;;;;;;3.17;1.63;;;;;;;15.22;96.08;100709.28;5048731;28;20054;-65
2022/07/11 01:36:23;;;;;;;2.85;1.80;;;;;;;15.20;96.24;100710.28;5040204;28;20017;-65
2022/07/11 01:38:48;;;;;;;2.40;1.65;;;;;;;15.14;96.41;100708.72;5029320;28;20033;-65
2022/07/11 01:41:14;;;;;;;3.15;1.98;;;;;;;15.11;95.85;100699.91;5029497;28;20044;-65
2022/07/11 01:43:39;;;;;;;2.88;1.83;;;;;;;15.07;96.06;100704.56;5028838;28;20061;-65
2022/07/11 01:46:05;;;;;;;2.53;1.50;;;;;;;14.98;96.28;100693.31;5029778;28;20455;-65
2022/07/11 01:48:30;;;;;;;2.38;1.58;;;;;;;15.01;96.20;100701.22;5029426;28;20091;-66
2022/07/11 01:50:56;;;;;;;2.80;1.60;;;;;;;15.04;96.15;100701.97;5029021;28;20026;-65
2022/07/11 01:53:21;;;;;;;3.85;1.75;;;;;;;15.05;96.94;100701.06;5029915;28;20124;-66
2022/07/11 01:55:47;;;;;;;4.38;2.08;;;;;;;15.05;95.82;100695.69;5041068;28;20035;-65
2022/07/11 01:58:12;;;;;;;4.25;1.92;;;;;;;15.04;96.31;100701.97;5050769;28;20509;-65
2022/07/11 02:00:38;;;;;;;3.25;1.50;;;;;;;14.90;97.15;100707.00;5050530;28;20033;-65
2022/07/11 02:03:04;;;;;;;4.10;2.03;;;;;;;15.01;97.06;100707.44;5051163;28;20480;-65
2022/07/11 02:05:29;;;;;;;3.35;1.83;;;;;;;15.02;96.99;100706.53;5050598;28;20039;-65
2022/07/11 02:08:13;;;;;;;2.75;1.67;;;;;;;15.03;97.58;100707.38;5050705;28;20099;-65
2022/07/11 02:10:46;;;;;;;3.63;1.95;;;;;;;15.01;98.51;100704.78;5050023;28;20048;-65
2022/07/11 02:13:16;;;;;;;;;;;;;;;15.05;98.01;100711.78;5051311;28;20028;-65
2022/07/11 02:15:43;;;;;;;3.78;1.92;;;;;;;15.07;97.91;100703.66;5050456;28;20275;-65
2022/07/11 02:18:10;;;;;;;4.43;2.50;;;;;;;15.05;98.44;100701.06;5050650;28;20073;-65
2022/07/11 02:20:36;;;;;;;4.65;2.17;;;;;;;15.06;98.79;100697.44;5050518;28;20056;-65
2022/07/11 02:23:03;;;;;;;4.20;2.30;;;;;;;15.09;98.43;100699.13;5050700;28;20376;-66
2022/07/11 02:25:29;;;;;;;3.50;1.83;;;;;;;15.10;98.53;100692.81;5049985;28;20424;-65
2022/07/11 02:27:54;;;;;;;3.08;1.95;;;;;;;15.14;99.23;100694.47;5050099;28;20037;-65
2022/07/11 02:30:20;;;;;;;4.43;1.83;;;;;;;15.17;98.62;100703.22;5050241;28;20047;-65
2022/07/11 02:32:45;;;;;;;3.92;1.88;;;;;;;15.22;98.39;100701.22;5050525;28;20036;-65
2022/07/11 02:35:11;;;;;;;3.42;2.03;;;;;;;15.27;99.77;100701.06;5050407;28;20107;-65
2022/07/11 02:37:36;;;;;;;2.80;1.70;;;;;;;15.33;99.32;100699.00;5050321;28;20047;-65
2022/07/11 02:40:02;;;;;;;4.35;1.98;;;;;;;15.37;99.11;100697.06;5050487;28;20435;-65
2022/07/11 02:42:27;;;;;;;3.92;2.10;;;;;;;15.39;99.12;100700.56;5036583;28;20033;-66
2022/07/11 02:44:52;;;;;;;5.15;2.10;;;;;;;15.46;99.71;100697.59;5030269;28;20520;-65
2022/07/11 02:47:18;;;;;;;3.60;1.98;;;;;;;15.52;98.94;100688.41;5030422;28;20033;-65
2022/07/11 02:49:43;;;;;;;2.88;1.92;;;;;;;15.56;98.70;100688.22;5030194;28;20032;-65
2022/07/11 02:52:10;;;;;;;3.78;2.35;;;;;;;15.58;99.08;100702.41;5030201;28;20112;-65
2022/07/11 02:54:36;;;;;;;4.20;2.30;;;;;;;15.64;99.01;100696.81;5031053;28;20030;-65
2022/07/11 02:57:03;;;;;;;3.20;2.00;;;;;;;15.71;99.72;100690.28;5053429;28;20435;-65
2022/07/11 02:59:28;;;;;;;3.30;2.22;;;;;;;15.78;99.67;100694.41;5053897;28;20476;-65
2022/07/11 03:01:54;;;;;;;3.30;1.80;;;;;;;15.80;99.54;100697.91;5054461;28;20036;-65
2022/07/11 03:04:20;;;;;;;3.78;2.30;;;;;;;15.75;99.60;100694.53;5053934;28;20477;-66
2022/07/11 03:06:45;;;;;;;3.47;2.30;;;;;;;15.74;99.94;100690.13;5054126;28;20357;-65
2022/07/11 03:09:11;;;;;;;4.10;2.20;;;;;;;15.69;99.55;100693.94;5053549;28;20028;-65
2022/07/11 03:11:36;;;;;;;3.95;2.30;;;;;;;15.64;99.83;100702.19;5053655;28;20033;-65
2022/07/11 03:14:02;;;;;;;20.95;3.72;;;;;;;15.67;99.77;100702.03;5052877;28;20363;-65
2022/07/11 03:16:28;;;;;;;4.75;2.47;;;;;;;15.75;99.91;100694.53;5051542;28;20400;-65
2022/07/11 03:18:54;;;;;;;4.00;2.10;;;;;;;15.81;99.49;100688.91;5052183;28;20505;-65
2022/07/11 03:21:19;;;;;;;5.97;2.25;;;;;;;15.86;100.00;100691.41;5038356;28;20022;-65
2022/07/11 03:23:45;;;;;;;4.45;2.25;;;;;;;15.93;99.85;100695.56;5039892;28;20029;-64
2022/07/11 03:26:11;;;;;;;3.67;2.13;;;;;;;15.92;100.00;100695.63;5051945;28;20416;-65
2022/07/11 03:28:36;;;;;;;3.85;2.30;;;;;;;15.91;100.00;100693.88;5052420;28;20033;-65
2022/07/11 03:31:02;;;;;;;5.10;2.65;;;;;;;15.93;100.00;100697.38;5053726;28;20017;-65
2022/07/11 03:33:27;;;;;;;4.43;2.35;;;;;;;15.89;100.00;100702.00;5053168;28;20075;-65
2022/07/11 03:35:53;;;;;;;4.47;2.22;;;;;;;15.93;100.00;100702.75;5045875;28;20425;-65
2022/07/11 03:38:19;;;;;;;4.30;2.17;;;;;;;15.99;100.00;100706.03;5033440;28;20112;-65
2022/07/11 03:40:46;;;;;;;3.65;2.05;;;;;;;16.01;100.00;100700.59;5033333;28;20037;-65
2022/07/11 03:43:11;;;;;;;3.30;2.25;;;;;;;15.97;100.00;100693.59;5046648;28;20406;-65
2022/07/11 03:45:37;;;;;;;3.60;1.98;;;;;;;16.03;100.00;100698.72;5035222;28;20080;-65
2022/07/11 03:48:03;;;;;;;4.55;2.47;;;;;;;16.09;100.00;100703.81;5033571;28;20071;-65
2022/07/11 03:50:29;;;;;;;4.82;2.20;;;;;;;16.12;100.00;100695.63;5032733;28;20025;-65
2022/07/11 03:52:55;;;;;;;9.35;2.30;;;;;;;16.13;100.00;100697.38;5033025;28;20048;-65
2022/07/11 03:55:21;;;;;;;7.75;2.67;;;;;;;16.12;100.00;100699.19;5039948;28;20021;-65
2022/07/11 03:57:47;;;;;;;5.30;2.47;;;;;;;16.12;100.00;100703.66;5050918;28;20481;-65
2022/07/11 04:00:13;;;;;;;3.90;2.25;;;;;;;16.14;99.76;100694.63;5050532;28;20050;-65
2022/07/11 04:02:38;;;;;;;5.20;2.38;;;;;;;16.07;100.00;100682.41;5050625;28;20025;-66
2022/07/11 04:05:04;;;;;;;3.88;2.25;;;;;;;16.06;100.00;100694.09;5050852;28;20029;-65
2022/07/11 04:07:30;;;;;;;6.22;2.80;;;;;;;16.07;100.00;100694.94;5050569;28;20029;-65
2022/07/11 04:09:56;;;;;;;4.85;2.40;;;;;;;16.08;100.00;100691.34;5050610;28;20020;-65
2022/07/11 04:12:21;;;;;;;4.57;2.17;;;;;;;16.06;100.00;100688.72;5052399;28;20032;-65
2022/07/11 04:14:47;;;;;;;3.75;2.45;;;;;;;16.01;100.00;100687.19;5050987;28;20028;-65
2022/07/11 04:17:13;;;;;;;7.40;2.42;;;;;;;16.11;100.00;100691.22;5050781;28;20392;-65
2022/07/11 04:19:39;;;;;;;4.32;2.55;;;;;;;16.02;100.00;100675.50;5050099;28;20045;-65
2022/07/11 04:22:04;;;;;;;5.10;2.65;;;;;;;16.06;100.00;100690.53;5050274;28;20032;-65
2022/07/11 04:24:30;;;;;;;5.57;2.45;;;;;;;16.04;100.00;100684.34;5050558;28;20033;-65
2022/07/11 04:26:55;;;;;;;4.97;2.22;;;;;;;15.98;100.00;100684.63;5050501;28;20066;-66
2022/07/11 04:29:23;;;;;;;4.85;2.30;;;;;;;15.95;100.00;100679.41;5051533;28;20376;-65
2022/07/11 04:31:49;;;;;;;7.18;2.70;;;;;;;15.97;100.00;100682.88;5052566;28;20087;-65
2022/07/11 04:34:15;;;;;;;6.10;2.70;;;;;;;16.02;100.00;100686.22;5051783;28;20025;-65
2022/07/11 04:36:40;;;;;;;4.97;2.90;;;;;;;16.04;100.00;100679.88;5052054;28;20071;-65
2022/07/11 04:39:05;;;;;;;5.15;2.83;;;;;;;16.13;100.00;100683.97;5052162;28;20028;-65
2022/07/11 04:41:31;;;;;;;6.72;3.00;;;;;;;16.19;100.00;100683.69;5051836;28;20159;-65
2022/07/11 04:43:56;;;;;;;6.97;2.83;;;;;;;16.18;100.00;100688.16;5051837;28;20028;-65
2022/07/11 04:46:22;;;;;;;7.30;3.08;;;;;;;16.20;100.00;100680.03;5052088;28;20071;-65
2022/07/11 04:48:48;;;;;;;7.85;3.00;;;;;;;16.26;100.00;100685.16;5051939;28;20500;-65
2022/07/11 04:51:13;;;;;;;5.57;2.92;;;;;;;16.34;100.00;100688.38;5048992;28;20116;-65
2022/07/11 04:53:39;;;;;;;5.13;2.95;;;;;;;16.43;100.00;100683.44;5031455;28;20500;-65
2022/07/11 04:56:04;;;;;;;6.60;3.20;;;;;;;16.53;100.00;100687.47;5044904;28;20017;-66
2022/07/11 04:58:32;;;;;;;6.82;3.17;;;;;;;16.63;100.00;100688.81;5051396;28;20536;-66
2022/07/11 05:00:58;;;;;;;9.32;2.80;;;;;;;16.74;100.00;100691.84;5051398;28;20099;-66
2022/07/11 05:03:24;;;;;;;7.93;3.42;;;;;;;16.84;100.00;100687.78;5051894;28;20052;-65
2022/07/11 05:05:49;;;;;;;5.18;3.03;;;;;;;16.92;100.00;100698.16;5051694;28;20106;-65
2022/07/11 05:08:14;;;;;;;7.35;3.03;;;;;;;17.10;98.92;100686.53;5051730;28;20031;-65
2022/07/11 05:10:40;;;;;;;12.38;3.70;;;;;;;17.23;97.27;100685.00;5049581;28;20070;-65
2022/07/11 05:13:05;;;;;;;8.73;3.08;;;;;;;17.41;96.03;100692.16;5051711;28;20366;-65
2022/07/11 05:15:31;;;;;;;7.28;2.97;;;;;;;17.50;95.79;100675.59;5051696;28;20052;-65
2022/07/11 05:17:57;;;;;;;8.57;3.10;;;;;;;17.83;95.99;100686.44;5050077;28;20059;-65
2022/07/11 05:20:22;;;;;;;6.55;3.05;;;;;;;18.62;94.80;100685.78;5051551;28;20469;-65
2022/07/11 05:22:48;;;;;;;5.07;2.80;;;;;;;19.06;90.44;100686.91;5051284;28;20044;-65
2022/07/11 05:25:13;;;;;;;6.50;2.70;;;;;;;19.16;86.65;100691.69;5051347;28;20128;-65
2022/07/11 05:27:39;;;;;;;6.07;2.95;;;;;;;19.06;85.09;100687.75;5050599;28;20522;-65
2022/07/11 05:30:05;;;;;;;7.20;2.92;;;;;;;19.02;86.04;100693.44;5051822;28;20029;-65
2022/07/11 05:32:31;;;;;;;8.00;2.85;;;;;;;19.04;86.23;100691.53;5050499;28;20029;-65
2022/07/11 05:35:02;;;;;;;5.22;3.03;;;;;;;19.08;86.26;100695.75;5051019;28;20017;-65
2022/07/11 05:37:28;;;;;;;8.85;2.97;;;;;;;19.15;85.76;100694.47;5037096;28;20029;-65
2022/07/11 05:39:53;;;;;;;5.07;3.10;;;;;;;19.21;84.36;100696.81;5031646;28;20053;-65
2022/07/11 05:42:19;;;;;;;8.05;2.90;;;;;;;19.33;83.81;100701.53;5044916;28;20152;-65
2022/07/11 05:44:44;;;;;;;5.38;2.92;;;;;;;19.42;83.96;100701.88;5031179;28;20030;-65
2022/07/11 05:47:09;;;;;;;8.18;2.90;;;;;;;19.52;84.03;100702.22;5030125;28;20029;-65
2022/07/11 05:49:35;;;;;;;6.18;2.90;;;;;;;19.59;83.09;100709.00;5031082;28;20029;-66
2022/07/11 05:52:01;;;;;;;6.00;3.00;;;;;;;19.63;83.17;100702.47;5030740;28;20037;-66
2022/07/11 05:54:28;;;;;;;3.53;2.20;;;;;;;19.73;83.47;100706.38;5030789;28;20393;-66
2022/07/11 05:56:54;;;;;;;15.73;6.00;;;;;;;19.89;82.92;100701.78;5050635;28;20468;-65
2022/07/11 05:59:20;;;;;;;7.43;2.97;;;;;;;20.03;82.55;100704.50;5050857;28;20388;-65
2022/07/11 06:01:46;;;;;;;6.45;3.15;;;;;;;20.21;81.42;100703.47;5050669;28;20033;-65
2022/07/11 06:04:12;;;;;;;4.95;3.00;;;;;;;20.34;79.64;100698.16;5049534;28;20037;-65
2022/07/11 06:06:38;;;;;;;5.43;2.55;;;;;;;20.49;77.23;100697.22;5048485;28;20582;-65
2022/07/11 06:09:03;;;;;;;7.80;2.90;;;;;;;20.68;76.10;100701.38;5048967;28;20040;-66
2022/07/11 06:11:29;;;;;;;3.92;2.60;;;;;;;20.83;76.59;100703.09;5048939;28;20024;-65
2022/07/11 06:13:55;;;;;;;5.05;2.55;;;;;;;20.96;76.17;100697.75;5049457;28;20025;-65
2022/07/11 06:16:20;;;;;;;4.72;2.30;;;;;;;21.11;75.02;100698.63;5048927;28;20051;-65
2022/07/11 06:18:46;;;;;;;7.03;3.03;;;;;;;21.25;73.96;100709.44;5050333;28;20480;-66
2022/07/11 06:21:12;;;;;;;5.55;2.20;;;;;;;21.36;73.48;100701.47;5050717;28;20025;-66
2022/07/11 06:23:37;;;;;;;4.70;2.78;;;;;;;21.48;72.47;100706.09;5049679;28;20108;-66
2022/07/11 06:26:04;;;;;;;4.75;2.15;;;;;;;21.59;71.90;100696.28;5050866;28;20033;-65
2022/07/11 06:28:30;;;;;;;5.47;2.88;;;;;;;21.78;69.37;100704.06;5049690;28;20492;-65
2022/07/11 06:30:55;;;;;;;6.13;2.90;;;;;;;21.94;69.82;100708.31;5052185;28;20025;-65
2022/07/11 06:33:21;;;;;;;5.40;2.85;;;;;;;22.06;69.02;100712.03;5054478;28;20098;-65
2022/07/11 06:35:47;;;;;;;4.65;2.78;;;;;;;22.10;68.63;100706.31;5054638;28;20032;-65
2022/07/11 06:38:14;;;;;;;5.95;2.22;;;;;;;22.28;70.68;100706.88;5054462;28;20036;-65
2022/07/11 06:40:41;;;;;;;5.80;2.38;;;;;;;22.45;69.04;100703.00;5054306;28;20025;-65
2022/07/11 06:43:08;;;;;;;4.43;2.45;;;;;;;22.36;66.78;100688.22;5053756;28;20033;-65
2022/07/11 06:45:33;;;;;;;7.40;2.17;;;;;;;22.42;66.55;100703.22;5053511;28;20029;-65
2022/07/11 06:47:59;;;;;;;4.00;2.30;;;;;;;22.63;67.12;100712.56;5054360;28;20040;-65
2022/07/11 06:50:25;;;;;;;3.83;2.20;;;;;;;22.73;66.03;100708.22;5044293;28;20033;-66
2022/07/11 06:52:50;;;;;;;3.97;2.10;;;;;;;22.94;65.14;100715.69;5032282;28;20022;-65
2022/07/11 06:55:16;;;;;;;7.35;3.10;;;;;;;23.10;65.82;100710.00;5037963;28;20538;-65
2022/07/11 06:57:41;;;;;;;4.32;2.22;;;;;;;23.15;64.44;100700.53;5052349;28;20017;-65
2022/07/11 07:00:08;;;;;;;3.83;2.00;;;;;;;23.38;66.44;100707.03;5053307;28;20021;-65
2022/07/11 07:02:33;;;;;;;6.22;2.75;;;;;;;23.41;63.89;100710.38;5053468;28;20033;-65
2022/07/11 07:04:59;;;;;;;4.43;2.17;;;;;;;23.51;63.05;100704.28;5053562;28;20036;-63
2022/07/11 07:07:28;;;;;;;4.43;2.00;;;;;;;23.56;63.65;100702.09;5050162;28;20460;-65
2022/07/11 07:09:54;;;;;;;4.93;2.25;;;;;;;23.63;63.29;100701.50;5054011;28;20025;-63
2022/07/11 07:12:21;;;;;;;5.85;2.25;;;;;;;23.80;61.74;100694.78;5053469;28;20028;-62
2022/07/11 07:14:47;;;;;;;2.83;2.00;;;;;;;24.00;61.04;100696.88;5054034;28;20031;-63
2022/07/11 07:17:12;;;;;;;5.63;2.45;;;;;;;24.15;62.33;100682.09;5053437;28;20035;-62
2022/07/11 07:19:38;;;;;;;5.22;1.92;;;;;;;24.35;59.98;100692.25;5053395;28;20044;-62
2022/07/11 07:22:05;;;;;;;3.53;1.95;;;;;;;24.48;58.73;100693.91;5053153;28;20087;-62
2022/07/11 07:24:31;;;;;;;5.65;2.10;;;;;;;24.58;59.21;100694.03;5052705;28;20029;-62
2022/07/11 07:26:57;;;;;;;3.78;2.05;;;;;;;24.71;56.56;100696.69;5053744;28;20036;-62
2022/07/11 07:29:22;;;;;;;6.82;2.00;;;;;;;24.88;57.56;100691.59;5052023;28;20387;-63
2022/07/11 07:31:49;;;;;;;5.18;2.05;;;;;;;25.01;56.22;100680.63;5051947;28;20028;-62
2022/07/11 07:34:14;;;;;;;3.72;2.20;;;;;;;25.00;55.41;100693.34;5052069;28;20026;-63
2022/07/11 07:36:40;;;;;;;4.72;1.80;;;;;;;25.26;57.61;100681.19;5051886;28;20029;-63
2022/07/11 07:39:05;;;;;;;2.70;1.75;;;;;;;25.62;53.95;100686.31;5051730;28;20028;-64
2022/07/11 07:41:31;;;;;;;2.13;1.60;;;;;;;25.89;52.55;100689.44;5050787;28;20028;-63
2022/07/11 07:43:56;;;;;;;3.72;1.92;;;;;;;26.19;52.81;100696.00;5047488;28;20053;-63
2022/07/11 07:46:21;;;;;;;3.33;1.63;;;;;;;26.35;52.13;100686.38;5035883;28;20374;-63
2022/07/11 07:48:47;;;;;;;4.90;2.00;;;;;;;26.64;51.14;100695.59;5033463;28;20491;-64
2022/07/11 07:51:12;;;;;;;6.07;1.90;;;;;;;26.95;52.02;100688.31;5032869;28;20048;-63
2022/07/11 07:53:38;;;;;;;3.38;1.40;;;;;;;26.97;48.59;100664.44;5032815;28;20392;-63
2022/07/11 07:56:05;;;;;;;4.75;1.77;;;;;;;27.46;49.00;100689.09;5045744;28;20033;-63
2022/07/11 07:58:30;;;;;;;2.45;1.30;;;;;;;27.75;47.70;100683.63;5051322;28;20032;-63
2022/07/11 08:03:40;;;;;;;5.93;2.00;;;;;;;27.96;47.87;100681.66;5051488;28;20067;-64
2022/07/11 08:06:05;;;;;;;3.40;2.35;;;;;;;28.02;46.80;100686.56;5051205;28;20064;-64
2022/07/11 08:08:31;;;;;;;2.97;1.70;;;;;;;28.02;47.88;100675.63;5051419;28;20024;-64
2022/07/11 08:10:59;;;;;;;4.47;1.40;;;;;;;28.07;46.36;100674.16;5051089;28;20021;-63
2022/07/11 08:13:25;;;;;;;4.88;2.17;;;;;;;28.18;47.21;100679.50;5051332;28;20020;-63
2022/07/11 08:15:50;;;;;;;2.97;1.67;;;;;;;28.23;44.74;100685.41;5051156;28;20424;-63
2022/07/11 08:18:16;;;;;;;3.40;1.77;;;;;;;28.39;45.93;100679.31;5050744;28;20084;-62
2022/07/11 08:20:41;;;;;;;6.30;1.70;;;;;;;28.82;45.04;100687.00;5051214;28;20047;-63
2022/07/11 08:23:07;;;;;;;3.45;1.58;;;;;;;29.12;44.79;100679.41;5051487;28;20090;-63
2022/07/11 08:25:32;;;;;;;2.15;1.33;;;;;;;28.98;44.91;100681.75;5051292;28;20389;-63
2022/07/11 08:27:58;;;;;;;2.70;1.50;;;;;;;29.03;45.19;100679.41;5050463;28;20021;-64
2022/07/11 08:30:24;;;;;;;2.35;1.35;;;;;;;29.63;46.14;100687.03;5049066;28;20032;-63
2022/07/11 08:32:49;;;;;;;4.57;1.30;;;;;;;29.78;42.93;100674.53;5049547;28;20380;-63
2022/07/11 08:35:15;;;;;;;4.47;1.10;;;;;;;29.55;42.04;100671.38;5048869;28;20029;-64
2022/07/11 08:37:41;;;;;;;2.40;1.60;;;;;;;29.70;42.35;100673.59;5048914;28;20025;-62
2022/07/11 08:40:07;;;;;;;3.05;1.38;;;;;;;29.90;42.61;100673.25;5051481;28;20048;-63
2022/07/11 08:42:44;;;;;;;1.95;1.17;;;;;;;29.85;42.03;100681.13;5051936;28;20025;-63
2022/07/11 08:45:13;;;;;;;2.95;1.23;;;;;;;29.54;43.25;100674.22;5050792;28;20060;-62
2022/07/11 08:47:40;;;;;;;2.25;1.50;;;;;;;29.47;43.34;100674.00;5032962;28;20082;-63
2022/07/11 08:50:06;;;;;;;3.20;1.35;;;;;;;29.34;44.50;100667.19;5030727;28;20388;-63
2022/07/11 08:52:32;;;;;;;2.45;1.13;;;;;;;29.58;43.45;100664.69;5029807;28;20413;-63
2022/07/11 08:54:58;;;;;;;4.65;1.48;;;;;;;29.98;42.17;100667.88;5033789;28;20038;-63
2022/07/11 08:57:24;;;;;;;3.25;1.25;;;;;;;30.36;40.88;100651.03;5050540;28;20025;-63
2022/07/11 08:59:55;;;;;;;3.75;1.00;;;;;;;30.43;40.82;100660.38;5048289;28;20083;-63
2022/07/11 09:02:21;;;;;;;2.83;1.20;;;;;;;30.41;41.61;100665.16;5051871;28;20064;-63
2022/07/11 09:04:47;;;;;;;3.05;1.17;;;;;;;30.51;39.61;100660.41;5051190;28;20032;-63
2022/07/11 09:07:12;;;;;;;1.70;1.05;;;;;;;30.28;40.93;100663.88;5051678;28;20095;-62
2022/07/11 09:09:38;;;;;;;1.58;1.00;;;;;;;30.05;40.30;100663.47;5051089;28;20392;-62
2022/07/11 09:12:14;;;;;;;2.75;1.20;;;;;;;29.98;40.16;100659.66;5051616;28;20024;-62
2022/07/11 09:14:39;;;;;;;2.83;0.80;;;;;;;29.56;40.31;100662.13;5051524;28;20032;-62
2022/07/11 09:17:06;;;;;;;1.95;1.17;;;;;;;29.28;41.58;100656.81;5051833;28;20469;-62
2022/07/11 09:19:36;;;;;;;2.95;0.90;;;;;;;29.15;41.74;100667.28;5051334;28;20053;-62
2022/07/11 09:27:49;;;;;;;3.13;0.98;;;;;;;29.01;41.59;100665.03;5050258;28;20043;-62
2022/07/11 09:30:26;;;;;;;5.07;1.38;;;;;;;28.91;42.55;100664.19;5049872;28;20392;-62
2022/07/11 09:33:03;;;;;;;4.55;1.10;;;;;;;28.60;42.43;100658.09;5049660;28;20021;-62
2022/07/11 09:35:35;;;;;;;3.97;1.17;;;;;;;28.47;42.47;100649.31;5045172;28;20037;-62
2022/07/11 09:38:21;;;;;;;5.90;1.60;;;;;;;28.97;44.04;100663.56;5030527;28;20047;-62
2022/07/11 09:40:48;;;;;;;2.20;0.80;;;;;;;29.77;43.24;100664.56;5032283;28;20473;-63
2022/07/11 09:43:23;;;;;;;1.15;0.55;;;;;;;30.12;40.51;100670.06;5033629;28;20029;-62
2022/07/11 09:45:48;;;;;;;2.05;0.95;;;;;;;30.14;38.85;100673.50;5048797;28;20370;-63
2022/07/11 09:48:14;;;;;;;3.08;0.98;;;;;;;30.35;40.99;100654.81;5032232;28;20095;-62
2022/07/11 09:50:53;;;;;;;2.25;1.02;;;;;;;30.62;39.20;100668.41;5031158;28;20060;-62
2022/07/11 09:53:20;;;;;;;1.60;1.05;;;;;;;30.29;39.19;100665.59;5031151;28;20466;-62
2022/07/11 09:55:46;;;;;;;4.20;1.25;;;;;;;30.15;40.07;100647.78;5041055;28;20552;-62
2022/07/11 09:58:14;;;;;;;5.18;1.50;;;;;;;30.23;41.94;100658.00;5051263;28;20029;-62
2022/07/11 10:00:40;;;;;;;2.42;1.25;;;;;;;30.35;41.00;100654.81;5050168;28;20436;-62
2022/07/11 10:03:08;;;;;;;2.92;1.15;;;;;;;30.61;40.84;100650.19;5050580;28;20082;-62
2022/07/11 10:05:34;;;;;;;2.35;1.05;;;;;;;31.07;38.52;100662.66;5050543;28;20419;-62
2022/07/11 10:08:00;;;;;;;1.88;1.30;;;;;;;31.37;39.21;100661.28;5050726;28;20059;-63
2022/07/11 10:10:27;;;;;;;4.25;1.30;;;;;;;31.28;38.73;100660.34;5050848;28;20433;-63
2022/07/11 10:12:53;;;;;;;6.30;1.30;;;;;;;31.41;39.09;100662.66;5050374;28;20373;-62
2022/07/11 10:15:22;;;;;;;6.43;1.60;;;;;;;31.12;39.00;100663.00;5050468;28;20032;-63
2022/07/11 10:18:03;;;;;;;2.35;1.30;;;;;;;31.39;38.73;100665.56;5050188;28;20033;-63
2022/07/11 10:20:39;;;;;;;4.78;1.40;;;;;;;31.61;38.92;100661.31;5050215;28;20028;-63
2022/07/11 10:23:33;;;;;;;1.40;0.95;;;;;;;32.22;37.87;100655.38;5050735;28;20484;-63
2022/07/11 10:26:08;;;;;;;2.70;1.17;;;;;;;32.25;36.75;100658.66;5049464;28;20036;-63
2022/07/11 10:28:39;;;;;;;3.90;1.30;;;;;;;32.07;36.65;100667.09;5048914;28;20025;-63
2022/07/11 10:31:19;;;;;;;2.05;1.17;;;;;;;32.23;36.34;100660.72;5048897;28;20040;-63
2022/07/11 10:34:00;;;;;;;2.58;1.00;;;;;;;32.06;36.81;100661.75;5049187;28;20535;-63
2022/07/11 10:36:26;;;;;;;2.13;0.98;;;;;;;31.99;37.12;100655.22;5048780;28;20107;-63
2022/07/11 10:39:27;;;;;;;2.40;1.10;;;;;;;32.08;37.96;100648.69;5049337;28;20107;-63
2022/07/11 10:41:54;;;;;;;2.60;1.35;;;;;;;31.53;35.38;100659.41;5050836;28;20120;-63
2022/07/11 10:44:20;;;;;;;3.35;1.23;;;;;;;31.48;37.04;100660.97;5049552;28;20025;-63
2022/07/11 10:46:45;;;;;;;2.03;0.98;;;;;;;31.54;37.64;100654.78;5050248;28;20040;-63
2022/07/11 10:49:15;;;;;;;2.08;0.95;;;;;;;31.44;36.94;100659.56;5050775;28;20071;-63
2022/07/11 10:52:03;;;;;;;3.60;1.30;;;;;;;31.74;37.05;100659.81;5050373;28;20047;-63
2022/07/11 10:54:51;;;;;;;4.43;1.30;;;;;;;32.03;36.72;100660.22;5036396;28;20037;-63
2022/07/11 10:57:27;;;;;;;4.97;1.60;;;;;;;32.12;36.57;100666.59;5033235;28;20459;-63
2022/07/11 11:00:02;;;;;;;3.63;1.40;;;;;;;32.27;36.09;100653.84;5030378;28;20033;-63
2022/07/11 11:02:29;;;;;;;2.97;1.88;;;;;;;32.31;35.76;100646.94;5031848;28;20052;-63
2022/07/11 11:05:03;;;;;;;5.70;1.45;;;;;;;32.38;36.19;100638.84;5030921;28;20068;-63
2022/07/11 11:07:44;;;;;;;3.35;1.27;;;;;;;32.14;36.22;100648.84;5030150;28;20025;-63
2022/07/11 11:10:18;;;;;;;4.63;1.30;;;;;;;32.43;36.27;100642.84;5030182;28;20041;-65
2022/07/11 11:13:09;;;;;;;3.88;1.30;;;;;;;32.93;35.49;100645.31;5031413;28;20033;-63
2022/07/11 11:15:42;;;;;;;2.10;1.23;;;;;;;33.40;35.31;100648.88;5030033;28;20041;-63
2022/07/11 11:18:23;;;;;;;1.77;1.05;;;;;;;33.58;36.43;100643.97;5033761;28;20085;-63
2022/07/11 11:21:00;;;;;;;2.70;1.10;;;;;;;33.73;35.03;100644.06;5033324;28;20380;-63
2022/07/11 11:23:29;;;;;;;3.05;1.05;;;;;;;33.56;33.76;100631.44;5033998;28;20021;-64
2022/07/11 11:26:04;;;;;;;2.67;1.15;;;;;;;33.10;34.56;100636.81;5053656;28;20033;-64
2022/07/11 11:28:29;;;;;;;2.15;1.10;;;;;;;33.35;35.33;100635.66;5053714;28;20056;-64
2022/07/11 11:31:00;;;;;;;3.53;1.23;;;;;;;33.61;34.62;100631.75;5050916;28;20501;-63
2022/07/11 11:33:27;;;;;;;2.53;1.27;;;;;;;33.71;34.09;100626.84;5034253;28;20056;-63